Hauptseite
METAR-TAF:

METAR-TAF

Flughäfen :

Flughafen Dundee

Dundee, Schottland

Breite: 56-27N, Länge: 003-01W, Höhe: 4 m

Beobachtung

Neuester Wetterbericht von vor 1 Stunde und 1 Minuten, um 18:50 UTC
Wind 11 kt aus West/Nordwest
Temperatur 14°C
Luftfeuchtigkeit 63%
Luftdruck 1013 hPa
Sichtweite 10 km oder mehr
Aufgelockert bewölkt in der Höhe von 4300 ft

METAR: EGPN 221850Z 30011KT 9999 SCT043 14/07 Q1013

Zeit: 20:51 (19:51 UTC)

Prognose

Neuester Wetterbericht von vor 2 Stunden und 52 Minuten, um 16:59 UTC
Gültige Prognose vom 22 um 18 UTC bis 22 um 20 UTC
Wind 9 kt aus West
Sichtweite 10 km oder mehr
Aufgelockert bewölkt in der Höhe von 3000 ft

TAF: EGPN 221659Z 2218/2220 27009KT 9999 SCT030

Wetterbeobachtungen und Prognosen von mehr als 4000 Flughäfen (METAR und TAF Bericht).

Die verfügbaren Stationen werden durch gelbe und rote Markierungen auf der Karte dargestellt.

Führen Sie die Maus auf sie, um den Namen der Station zu sehen.

Darauf klicken, um die Beobachtung von Wetterbeobachtungen und Prognosen zu sehen.

Um die Karte zu ändern : klicken Sie auf den grünen Tasten mit einem schwarzen Kreuz Zum Vergrößern, auf den grünen Button mit einem Gedankenstrich zu verkleinern, oder auf die grünen Pfeile für benachbarte Karten.


METAR-TAF: